Pecan Grove, Mississippi
Current Conditions -  °F | °C
As of 7:35 PM on Friday 24 Oct 2014 (Local Time) from KPIB Reporting Station
Clear Clear  
Wind Chill: 61°   Ceiling: Unl
Heat Index: 61°   Visibility: 10mi
Dew Point: 45°   Wind: 6mph
Humidity: 55%   Direction: 310°NW
Pressure: 30.09"   Gusts: NA
Location:  31.5533°N, 89.2322°W
Report Text: KPIB 250035Z AUTO 31005KT 10SM CLR 16/07 A3009 RMK AO1
Loading
Personal Weather Stations






























Interactive Weather Map
Tropical Storm Tracking
New forecast layout! Learn more

10-Day Weather Forecast

Advertisements
Track Severe Weather on mobile